Accueil
METAR-TAF:

METAR-TAF

Aéroports :

Little Rock National Airport (Adams Field)

Little Rock, Arkansas, États-Unis

latitude: 34-43-36N, longitude: 092-14-10W, altitude: 79 m

Observation

Le bulletin a été fait il y a 34 minutes, à 01:53 UTC
Vent calme
Température 23°C
Humidité 65%
Pression 1020 hPa
Visibilité: 16.1 km
Nuages épars à une hauteur de 15000 ft
Nuages fragmentés à une hauteur de 25000 ft

METAR: KLIT 020153Z 00000KT 10SM SCT150 BKN250 23/16 A3012 RMK AO2 SLP198 T02280156

Heure: 21:27 (02:27 UTC)

Prévision

Le bulletin a été fait il y a 2 heures et 58 minutes, à 23:29 UTC
Prévision valable du 02 à 00 UTC au 02 à 24 UTC
Vent 3 kt de direction variable
Visibilité: 10 km
Nuages épars à une hauteur de 15000 ft
A partir de 02 à 1800 UTC
Vent 6 kt de sud
Visibilité: 10 km
Nuages épars à une hauteur de 25000 ft

TAF: KLIT 012329Z 0200/0224 VRB03KT P6SM SCT150 FM021800 19006KT P6SM SCT250

Observations et prévisions météorologiques de plus de 4000 aéroports (messages METAR et TAF).

Les stations disponibles sont représentées par des disques jaunes et rouges sur la carte.

Passer la souris dessus pour voir le nom de la station.

Cliquer dessus pour voir les observations et prévisions météorologiques.

Pour changer de carte: cliquez sur les boutons verts avec une croix noire pour zoomer, sur le bouton vert avec un tiret pour effectuer un zoom arrière, ou sur les flèches vertes pour les cartes adjacentes.


METAR-TAF: